createdAt,value
2023-05-17T00:01:44.596Z,98137.00
2023-05-17T00:04:11.137Z,98145.00
2023-05-17T00:06:37.329Z,98134.00
2023-05-17T00:09:03.584Z,98138.00
2023-05-17T00:11:29.758Z,98134.00
2023-05-17T00:13:55.946Z,98143.00
2023-05-17T00:16:22.127Z,98126.00
2023-05-17T00:18:48.656Z,98134.00
2023-05-17T00:21:14.903Z,98140.00
2023-05-17T00:23:41.119Z,98106.00
2023-05-17T00:26:07.294Z,98118.00
2023-05-17T00:28:33.452Z,98119.00
2023-05-17T00:30:59.969Z,98116.00
2023-05-17T00:33:26.176Z,98126.00
2023-05-17T00:35:52.677Z,98131.00
2023-05-17T00:38:18.899Z,98133.00
2023-05-17T00:40:45.127Z,98141.00
2023-05-17T00:43:11.309Z,98133.00
2023-05-17T00:45:37.749Z,98119.00
2023-05-17T00:48:04.824Z,98120.00
2023-05-17T00:50:31.312Z,98134.00
2023-05-17T00:52:57.891Z,98125.00
2023-05-17T00:55:24.221Z,98122.00
2023-05-17T00:57:51.427Z,98128.00
2023-05-17T01:00:18.534Z,98140.00
2023-05-17T01:02:47.956Z,98135.00
2023-05-17T01:05:14.904Z,98138.00
2023-05-17T01:07:41.303Z,98134.00
2023-05-17T01:10:09.371Z,98154.00
2023-05-17T01:13:05.246Z,98138.00
2023-05-17T01:15:36.014Z,98137.00
2023-05-17T01:18:23.108Z,98131.00
2023-05-17T01:20:53.795Z,98142.00
2023-05-17T01:23:58.552Z,98136.00
2023-05-17T01:26:40.334Z,98130.00
2023-05-17T01:29:09.201Z,98139.00
2023-05-17T01:31:36.432Z,98136.00
2023-05-17T01:34:09.122Z,98146.00
2023-05-17T01:36:35.464Z,98146.00
2023-05-17T01:39:01.969Z,98142.00
2023-05-17T01:41:39.500Z,98151.00
2023-05-17T01:44:25.470Z,98164.00
2023-05-17T01:47:05.061Z,98163.00
2023-05-17T01:49:37.872Z,98162.00
2023-05-17T01:52:26.389Z,98156.00
2023-05-17T01:55:29.440Z,98162.00
2023-05-17T01:57:56.785Z,98151.00
2023-05-17T02:00:28.579Z,98140.00
2023-05-17T02:02:56.976Z,98165.00
2023-05-17T02:05:23.214Z,98165.00
2023-05-17T02:07:49.525Z,98161.00
2023-05-17T02:10:17.054Z,98175.00
2023-05-17T02:12:43.495Z,98160.00
2023-05-17T02:15:11.266Z,98170.00
2023-05-17T02:17:39.892Z,98169.00
2023-05-17T02:20:08.286Z,98178.00
2023-05-17T02:22:34.925Z,98167.00
2023-05-17T02:25:02.021Z,98166.00
2023-05-17T02:27:28.307Z,98169.00
2023-05-17T02:29:54.543Z,98174.00
2023-05-17T02:32:21.003Z,98162.00
2023-05-17T02:34:47.190Z,98168.00
2023-05-17T02:37:13.403Z,98176.00
2023-05-17T02:39:39.858Z,98159.00
2023-05-17T02:42:06.326Z,98176.00
2023-05-17T02:44:32.515Z,98176.00
2023-05-17T02:46:58.760Z,98169.00
2023-05-17T02:49:24.994Z,98157.00
2023-05-17T02:51:51.328Z,98171.00
2023-05-17T02:54:17.553Z,98168.00
2023-05-17T02:56:43.801Z,98174.00
2023-05-17T02:59:10.084Z,98174.00
2023-05-17T03:01:38.050Z,98182.00
2023-05-17T03:04:05.130Z,98176.00
2023-05-17T03:06:31.494Z,98177.00
2023-05-17T03:08:58.260Z,98167.00
2023-05-17T03:11:25.097Z,98176.00
2023-05-17T03:13:52.958Z,98169.00
2023-05-17T03:16:23.855Z,98171.00
2023-05-17T03:18:51.552Z,98175.00
2023-05-17T03:21:17.856Z,98182.00
2023-05-17T03:23:44.272Z,98180.00
2023-05-17T03:26:10.466Z,98191.00
2023-05-17T03:28:43.324Z,98186.00
2023-05-17T03:31:10.754Z,98199.00
2023-05-17T03:33:37.355Z,98188.00
2023-05-17T03:36:04.512Z,98190.00
2023-05-17T03:38:30.931Z,98201.00
2023-05-17T03:40:57.333Z,98181.00
2023-05-17T03:43:23.571Z,98193.00
2023-05-17T03:45:50.195Z,98175.00
2023-05-17T03:48:17.622Z,98193.00
2023-05-17T03:50:44.171Z,98199.00
2023-05-17T03:53:11.271Z,98181.00
2023-05-17T03:55:38.163Z,98197.00
2023-05-17T03:58:04.674Z,98215.00
2023-05-17T04:00:30.917Z,98204.00
2023-05-17T04:03:02.054Z,98189.00
2023-05-17T04:05:28.766Z,98200.00
2023-05-17T04:07:55.925Z,98205.00
2023-05-17T04:10:22.218Z,98208.00
2023-05-17T04:12:49.139Z,98234.00
2023-05-17T04:15:15.779Z,98198.00
2023-05-17T04:17:42.959Z,98220.00
2023-05-17T04:20:10.603Z,98211.00
2023-05-17T04:22:36.870Z,98214.00
2023-05-17T04:25:05.786Z,98216.00
2023-05-17T04:27:32.961Z,98228.00
2023-05-17T04:29:59.204Z,98227.00
2023-05-17T04:32:27.251Z,98214.00
2023-05-17T04:34:53.792Z,98227.00
2023-05-17T04:37:20.180Z,98225.00
2023-05-17T04:39:49.456Z,98247.00
2023-05-17T04:42:15.735Z,98222.00
2023-05-17T04:44:47.933Z,98221.00
2023-05-17T04:47:14.198Z,98236.00
2023-05-17T04:49:41.065Z,98230.00
2023-05-17T04:52:07.271Z,98229.00
2023-05-17T04:54:34.240Z,98238.00
2023-05-17T04:57:00.467Z,98243.00
2023-05-17T04:59:46.884Z,98238.00
2023-05-17T05:02:13.904Z,98234.00
2023-05-17T05:04:40.712Z,98230.00
2023-05-17T05:07:08.116Z,98248.00
2023-05-17T05:09:34.534Z,98239.00
2023-05-17T05:12:00.735Z,98251.00
2023-05-17T05:14:26.935Z,98250.00
2023-05-17T05:16:54.894Z,98235.00
2023-05-17T05:19:21.904Z,98250.00
2023-05-17T05:21:50.454Z,98240.00
2023-05-17T05:24:16.886Z,98247.00
2023-05-17T05:26:44.028Z,98254.00
2023-05-17T05:29:11.298Z,98249.00
2023-05-17T05:31:37.858Z,98265.00
2023-05-17T05:34:06.702Z,98264.00
2023-05-17T05:36:33.779Z,98265.00
2023-05-17T05:39:01.568Z,98258.00
2023-05-17T05:41:30.693Z,98273.00
2023-05-17T05:43:57.280Z,98294.00
2023-05-17T05:46:23.590Z,98282.00
2023-05-17T05:48:50.265Z,98271.00
2023-05-17T05:51:23.889Z,98279.00
2023-05-17T05:53:51.229Z,98293.00
2023-05-17T05:56:19.009Z,98288.00
2023-05-17T05:58:45.226Z,98296.00
2023-05-17T06:01:11.935Z,98293.00
2023-05-17T06:03:38.243Z,98294.00
2023-05-17T06:06:04.800Z,98294.00
2023-05-17T06:08:31.361Z,98298.00
2023-05-17T06:10:57.656Z,98286.00
2023-05-17T06:13:23.830Z,98309.00
2023-05-17T06:15:50.674Z,98292.00
2023-05-17T06:18:16.919Z,98302.00
2023-05-17T06:20:43.161Z,98302.00
2023-05-17T06:23:09.346Z,98305.00
2023-05-17T06:25:35.795Z,98308.00
2023-05-17T06:28:03.755Z,98335.00
2023-05-17T06:30:30.593Z,98305.00
2023-05-17T06:32:57.559Z,98315.00
2023-05-17T06:35:23.889Z,98326.00
2023-05-17T06:37:50.093Z,98331.00
2023-05-17T06:40:31.431Z,98326.00
2023-05-17T06:42:57.884Z,98333.00
2023-05-17T06:45:26.252Z,98352.00
2023-05-17T06:47:53.162Z,98338.00
2023-05-17T06:50:19.449Z,98336.00
2023-05-17T06:52:45.959Z,98338.00
2023-05-17T06:55:12.381Z,98348.00
2023-05-17T06:57:38.553Z,98344.00
2023-05-17T07:00:09.742Z,98335.00
2023-05-17T07:02:36.831Z,98343.00
2023-05-17T07:05:06.118Z,98359.00
2023-05-17T07:07:32.553Z,98341.00
2023-05-17T07:09:58.984Z,98342.00
2023-05-17T07:12:25.173Z,98340.00
2023-05-17T07:14:51.372Z,98355.00
2023-05-17T07:17:17.575Z,98354.00
2023-05-17T07:19:43.888Z,98357.00
2023-05-17T07:22:10.766Z,98358.00
2023-05-17T07:24:36.929Z,98361.00
2023-05-17T07:27:03.301Z,98354.00
2023-05-17T07:29:29.734Z,98345.00
2023-05-17T07:31:58.258Z,98358.00
2023-05-17T07:34:24.692Z,98359.00
2023-05-17T07:36:50.901Z,98373.00
2023-05-17T07:39:17.382Z,98373.00
2023-05-17T07:41:43.584Z,98376.00
2023-05-17T07:44:10.048Z,98366.00
2023-05-17T07:46:36.503Z,98376.00
2023-05-17T07:49:02.817Z,98384.00
2023-05-17T07:51:29.071Z,98377.00
2023-05-17T07:53:55.251Z,98372.00
2023-05-17T07:56:21.684Z,98385.00
2023-05-17T07:58:48.030Z,98388.00
2023-05-17T08:01:14.459Z,98393.00
2023-05-17T08:03:46.970Z,98398.00
2023-05-17T08:06:17.496Z,98399.00
2023-05-17T08:08:44.385Z,98388.00
2023-05-17T08:11:12.046Z,98399.00
2023-05-17T08:13:38.361Z,98400.00
2023-05-17T08:16:13.564Z,98399.00
2023-05-17T08:18:42.421Z,98402.00
2023-05-17T08:21:09.104Z,98404.00
2023-05-17T08:23:35.362Z,98387.00
2023-05-17T08:26:01.522Z,98391.00
2023-05-17T08:28:28.044Z,98417.00
2023-05-17T08:30:54.196Z,98404.00
2023-05-17T08:33:21.770Z,98407.00
2023-05-17T08:36:00.611Z,98401.00
2023-05-17T08:38:27.123Z,98392.00
2023-05-17T08:40:59.211Z,98378.00
2023-05-17T08:43:28.366Z,98396.00
2023-05-17T08:45:57.169Z,98405.00
2023-05-17T08:48:23.789Z,98410.00
2023-05-17T08:50:53.723Z,98405.00
2023-05-17T08:53:20.105Z,98393.00
2023-05-17T08:55:49.952Z,98403.00
2023-05-17T08:58:28.430Z,98412.00
2023-05-17T09:00:56.771Z,98403.00
2023-05-17T09:03:24.736Z,98418.00
2023-05-17T09:05:54.996Z,98415.00
2023-05-17T09:08:22.368Z,98419.00
2023-05-17T09:10:49.324Z,98419.00
2023-05-17T09:13:16.127Z,98403.00
2023-05-17T09:15:44.212Z,98402.00
2023-05-17T09:18:15.251Z,98406.00
2023-05-17T09:20:50.981Z,98395.00
2023-05-17T09:23:21.882Z,98403.00
2023-05-17T09:25:49.330Z,98389.00
2023-05-17T09:28:19.930Z,98397.00
2023-05-17T09:30:48.861Z,98395.00
2023-05-17T09:33:18.484Z,98380.00
2023-05-17T09:35:45.196Z,98406.00
2023-05-17T09:38:13.170Z,98410.00
2023-05-17T09:40:43.990Z,98415.00
2023-05-17T09:43:12.138Z,98411.00
2023-05-17T09:45:39.214Z,98384.00
2023-05-17T09:48:18.026Z,98410.00
2023-05-17T09:50:50.424Z,98403.00
2023-05-17T09:53:39.256Z,98382.00
2023-05-17T09:56:07.683Z,98386.00
2023-05-17T09:58:37.375Z,98374.00
2023-05-17T10:01:09.456Z,98384.00
2023-05-17T10:03:37.994Z,98408.00
2023-05-17T10:06:13.286Z,98401.00
2023-05-17T10:08:54.699Z,98384.00
2023-05-17T10:11:33.786Z,98382.00
2023-05-17T10:14:31.851Z,98389.00
2023-05-17T10:17:05.950Z,98407.00
2023-05-17T10:19:33.151Z,98400.00
2023-05-17T10:22:14.725Z,98396.00
2023-05-17T10:24:52.326Z,98413.00
2023-05-17T10:27:20.453Z,98391.00
2023-05-17T10:29:49.854Z,98396.00
2023-05-17T10:32:29.491Z,98388.00
2023-05-17T10:35:09.293Z,98360.00
2023-05-17T10:37:40.515Z,98384.00
2023-05-17T10:40:12.817Z,98382.00
2023-05-17T10:42:50.162Z,98375.00
2023-05-17T10:45:21.099Z,98360.00
2023-05-17T10:47:54.082Z,98356.00
2023-05-17T10:50:24.371Z,98384.00
2023-05-17T10:52:52.808Z,98385.00
2023-05-17T10:55:27.837Z,98362.00
2023-05-17T10:58:17.546Z,98379.00
2023-05-17T11:00:52.042Z,98381.00
2023-05-17T11:03:33.973Z,98382.00
2023-05-17T11:06:24.604Z,98360.00
2023-05-17T11:09:17.956Z,98355.00
2023-05-17T11:12:10.515Z,98379.00
2023-05-17T11:14:52.534Z,98339.00
2023-05-17T11:17:25.978Z,98379.00
2023-05-17T11:20:02.065Z,98351.00
2023-05-17T11:22:36.675Z,98366.00
2023-05-17T11:25:13.775Z,98372.00
2023-05-17T11:27:51.520Z,98350.00
2023-05-17T11:30:22.331Z,98369.00
2023-05-17T11:32:52.725Z,98376.00
2023-05-17T11:35:28.208Z,98372.00
2023-05-17T11:38:15.333Z,98361.00
2023-05-17T11:40:44.647Z,98357.00
2023-05-17T11:43:20.877Z,98340.00
2023-05-17T11:45:57.859Z,98351.00
2023-05-17T11:48:25.897Z,98384.00
2023-05-17T11:50:55.552Z,98343.00
2023-05-17T11:53:23.605Z,98365.00
2023-05-17T11:55:51.928Z,98358.00
2023-05-17T11:58:23.856Z,98364.00
2023-05-17T12:01:00.858Z,98345.00
2023-05-17T12:03:29.217Z,98355.00
2023-05-17T12:06:06.224Z,98363.00
2023-05-17T12:08:36.324Z,98360.00
2023-05-17T12:11:05.335Z,98367.00
2023-05-17T12:13:37.173Z,98339.00
2023-05-17T12:16:09.640Z,98361.00
2023-05-17T12:18:38.217Z,98359.00
2023-05-17T12:21:06.747Z,98375.00
2023-05-17T12:23:40.464Z,98370.00
2023-05-17T12:26:13.748Z,98364.00
2023-05-17T12:29:08.504Z,98361.00
2023-05-17T12:31:39.547Z,98355.00
2023-05-17T12:34:09.183Z,98364.00
2023-05-17T12:36:38.838Z,98359.00
2023-05-17T12:39:10.515Z,98367.00
2023-05-17T12:41:38.633Z,98374.00
2023-05-17T12:44:15.367Z,98352.00
2023-05-17T12:46:44.360Z,98372.00
2023-05-17T12:49:11.859Z,98374.00
2023-05-17T12:51:46.173Z,98362.00
2023-05-17T12:54:29.087Z,98356.00
2023-05-17T12:56:56.262Z,98357.00
2023-05-17T12:59:27.905Z,98364.00
2023-05-17T13:01:57.067Z,98361.00
2023-05-17T13:04:33.001Z,98383.00
2023-05-17T13:07:02.900Z,98371.00
2023-05-17T13:09:31.392Z,98370.00
2023-05-17T13:12:06.396Z,98375.00
2023-05-17T13:14:39.602Z,98371.00
2023-05-17T13:17:15.627Z,98375.00
2023-05-17T13:19:42.023Z,98373.00
2023-05-17T13:22:08.886Z,98372.00
2023-05-17T13:24:37.501Z,98378.00
2023-05-17T13:27:05.317Z,98372.00
2023-05-17T13:29:39.527Z,98366.00
2023-05-17T13:32:09.241Z,98373.00
2023-05-17T13:34:36.106Z,98381.00
2023-05-17T13:37:03.316Z,98382.00
2023-05-17T13:39:29.641Z,98378.00
2023-05-17T13:41:55.950Z,98375.00
2023-05-17T13:44:22.325Z,98367.00
2023-05-17T13:46:48.512Z,98370.00
2023-05-17T13:49:14.744Z,98364.00
2023-05-17T13:51:42.060Z,98358.00
2023-05-17T13:54:09.919Z,98361.00
2023-05-17T13:56:38.377Z,98361.00
2023-05-17T13:59:04.754Z,98370.00
2023-05-17T14:01:31.052Z,98369.00
2023-05-17T14:03:57.331Z,98383.00
2023-05-17T14:06:23.811Z,98365.00
2023-05-17T14:08:51.458Z,98357.00
2023-05-17T14:11:17.653Z,98369.00
2023-05-17T14:13:43.880Z,98366.00
2023-05-17T14:16:10.218Z,98368.00
2023-05-17T14:18:37.174Z,98378.00
2023-05-17T14:21:04.346Z,98364.00
2023-05-17T14:23:30.559Z,98359.00
2023-05-17T14:25:57.014Z,98372.00
2023-05-17T14:28:23.197Z,98362.00
2023-05-17T14:30:49.830Z,98366.00
2023-05-17T14:33:16.142Z,98360.00
2023-05-17T14:35:42.416Z,98355.00
2023-05-17T14:38:08.574Z,98358.00
2023-05-17T14:40:34.805Z,98363.00
2023-05-17T14:43:01.004Z,98362.00
2023-05-17T14:45:27.457Z,98351.00
2023-05-17T14:47:53.835Z,98359.00
2023-05-17T14:50:20.323Z,98353.00
2023-05-17T14:52:46.547Z,98361.00
2023-05-17T14:55:15.598Z,98362.00
2023-05-17T14:57:42.977Z,98357.00
2023-05-17T15:00:10.837Z,98346.00
2023-05-17T15:02:37.947Z,98360.00
2023-05-17T15:05:04.962Z,98362.00
2023-05-17T15:07:33.665Z,98374.00
2023-05-17T15:10:00.938Z,98375.00
2023-05-17T15:12:28.674Z,98366.00
2023-05-17T15:14:55.112Z,98371.00
2023-05-17T15:17:22.209Z,98363.00
2023-05-17T15:19:49.681Z,98370.00
2023-05-17T15:22:16.610Z,98354.00
2023-05-17T15:24:45.786Z,98338.00
2023-05-17T15:27:15.690Z,98357.00
2023-05-17T15:29:43.137Z,98364.00
2023-05-17T15:32:09.751Z,98361.00
2023-05-17T15:34:36.121Z,98364.00
2023-05-17T15:37:04.014Z,98360.00
2023-05-17T15:39:30.238Z,98364.00
2023-05-17T15:41:58.327Z,98367.00
2023-05-17T15:44:24.774Z,98384.00
2023-05-17T15:46:51.350Z,98385.00
2023-05-17T15:49:22.053Z,98376.00
2023-05-17T15:51:48.399Z,98377.00
2023-05-17T15:54:15.018Z,98353.00
2023-05-17T15:56:43.441Z,98371.00
2023-05-17T15:59:09.669Z,98376.00
2023-05-17T16:01:36.046Z,98373.00
2023-05-17T16:04:02.479Z,98371.00
2023-05-17T16:06:33.919Z,98368.00
2023-05-17T16:09:00.235Z,98363.00
2023-05-17T16:11:26.649Z,98364.00
2023-05-17T16:13:53.162Z,98364.00
2023-05-17T16:16:20.420Z,98385.00
2023-05-17T16:18:46.830Z,98392.00
2023-05-17T16:21:13.539Z,98391.00
2023-05-17T16:23:39.718Z,98383.00
2023-05-17T16:26:06.429Z,98388.00
2023-05-17T16:28:34.717Z,98394.00
2023-05-17T16:31:02.861Z,98386.00
2023-05-17T16:33:29.219Z,98385.00
2023-05-17T16:35:56.990Z,98399.00
2023-05-17T16:38:23.177Z,98392.00
2023-05-17T16:40:49.611Z,98388.00
2023-05-17T16:43:15.929Z,98384.00
2023-05-17T16:45:45.524Z,98380.00
2023-05-17T16:48:13.869Z,98401.00
2023-05-17T16:50:41.914Z,98400.00
2023-05-17T16:53:08.286Z,98391.00
2023-05-17T16:55:35.573Z,98402.00
2023-05-17T16:58:01.931Z,98404.00
2023-05-17T17:00:29.288Z,98393.00
2023-05-17T17:02:58.439Z,98390.00
2023-05-17T17:05:25.726Z,98404.00
2023-05-17T17:07:51.930Z,98393.00
2023-05-17T17:10:19.343Z,98402.00
2023-05-17T17:12:46.495Z,98410.00
2023-05-17T17:15:13.275Z,98405.00
2023-05-17T17:17:39.472Z,98411.00
2023-05-17T17:20:08.289Z,98401.00
2023-05-17T17:22:35.140Z,98405.00
2023-05-17T17:25:01.345Z,98419.00
2023-05-17T17:27:27.500Z,98408.00
2023-05-17T17:29:54.851Z,98419.00
2023-05-17T17:32:21.173Z,98426.00
2023-05-17T17:34:47.427Z,98423.00
2023-05-17T17:37:13.625Z,98414.00
2023-05-17T17:39:41.386Z,98428.00
2023-05-17T17:42:09.781Z,98428.00
2023-05-17T17:44:36.011Z,98432.00
2023-05-17T17:47:02.199Z,98431.00
2023-05-17T17:49:29.325Z,98423.00
2023-05-17T17:51:57.272Z,98424.00
2023-05-17T17:54:23.438Z,98434.00
2023-05-17T17:56:49.792Z,98443.00
2023-05-17T17:59:16.413Z,98445.00
2023-05-17T18:01:43.088Z,98444.00
2023-05-17T18:04:10.295Z,98438.00
2023-05-17T18:06:36.803Z,98437.00
2023-05-17T18:09:03.006Z,98437.00
2023-05-17T18:11:29.236Z,98444.00
2023-05-17T18:13:55.867Z,98445.00
2023-05-17T18:16:22.116Z,98443.00
2023-05-17T18:18:48.355Z,98442.00
2023-05-17T18:21:14.636Z,98451.00
2023-05-17T18:23:40.850Z,98444.00
2023-05-17T18:26:07.115Z,98448.00
2023-05-17T18:28:41.841Z,98446.00
2023-05-17T18:31:08.934Z,98447.00
2023-05-17T18:33:35.212Z,98455.00
2023-05-17T18:36:01.407Z,98454.00
2023-05-17T18:38:27.639Z,98455.00
2023-05-17T18:40:54.117Z,98463.00
2023-05-17T18:43:21.965Z,98442.00
2023-05-17T18:45:48.375Z,98446.00
2023-05-17T18:48:14.943Z,98435.00
2023-05-17T18:50:41.368Z,98433.00
2023-05-17T18:53:07.762Z,98459.00
2023-05-17T18:55:33.955Z,98436.00
2023-05-17T18:58:00.408Z,98450.00
2023-05-17T19:00:26.612Z,98444.00
2023-05-17T19:02:52.971Z,98438.00
2023-05-17T19:05:19.314Z,98451.00
2023-05-17T19:07:45.619Z,98461.00
2023-05-17T19:10:11.841Z,98462.00
2023-05-17T19:12:38.163Z,98451.00
2023-05-17T19:15:06.326Z,98444.00
2023-05-17T19:17:32.689Z,98461.00
2023-05-17T19:19:59.000Z,98443.00
2023-05-17T19:22:25.232Z,98476.00
2023-05-17T19:24:51.430Z,98461.00
2023-05-17T19:27:19.151Z,98444.00
2023-05-17T19:29:47.290Z,98476.00
2023-05-17T19:32:13.858Z,98436.00
2023-05-17T19:34:40.434Z,98478.00
2023-05-17T19:37:06.844Z,98472.00
2023-05-17T19:39:33.161Z,98488.00
2023-05-17T19:41:59.514Z,98450.00
2023-05-17T19:44:25.873Z,98483.00
2023-05-17T19:46:52.223Z,98464.00
2023-05-17T19:49:18.656Z,98477.00
2023-05-17T19:51:45.972Z,98489.00
2023-05-17T19:54:12.153Z,98489.00
2023-05-17T19:56:38.588Z,98479.00
2023-05-17T19:59:05.358Z,98476.00
2023-05-17T20:01:31.887Z,98475.00
2023-05-17T20:03:58.163Z,98488.00
2023-05-17T20:06:24.724Z,98480.00
2023-05-17T20:08:50.948Z,98473.00
2023-05-17T20:11:17.191Z,98470.00
2023-05-17T20:13:44.210Z,98477.00
2023-05-17T20:16:13.629Z,98470.00
2023-05-17T20:18:44.399Z,98470.00
2023-05-17T20:21:14.360Z,98458.00
2023-05-17T20:23:40.777Z,98479.00
2023-05-17T20:26:07.395Z,98477.00
2023-05-17T20:28:33.599Z,98485.00
2023-05-17T20:31:00.100Z,98477.00
2023-05-17T20:33:26.321Z,98483.00
2023-05-17T20:35:53.263Z,98480.00
2023-05-17T20:38:19.901Z,98487.00
2023-05-17T20:40:46.435Z,98484.00
2023-05-17T20:43:13.602Z,98482.00
2023-05-17T20:45:40.180Z,98475.00
2023-05-17T20:48:06.619Z,98482.00
2023-05-17T20:50:32.828Z,98490.00
2023-05-17T20:52:59.270Z,98491.00
2023-05-17T20:55:25.579Z,98480.00
2023-05-17T20:57:51.818Z,98490.00
2023-05-17T21:00:20.018Z,98486.00
2023-05-17T21:02:46.336Z,98486.00
2023-05-17T21:05:13.045Z,98486.00
2023-05-17T21:07:39.702Z,98498.00
2023-05-17T21:10:07.769Z,98503.00
2023-05-17T21:12:34.830Z,98500.00
2023-05-17T21:15:16.445Z,98499.00
2023-05-17T21:17:46.209Z,98496.00
2023-05-17T21:20:13.359Z,98490.00
2023-05-17T21:22:39.642Z,98497.00
2023-05-17T21:25:06.753Z,98505.00
2023-05-17T21:27:33.689Z,98497.00
2023-05-17T21:30:00.845Z,98497.00
2023-05-17T21:32:27.319Z,98507.00
2023-05-17T21:34:54.578Z,98511.00
2023-05-17T21:37:21.040Z,98492.00
2023-05-17T21:39:47.576Z,98509.00
2023-05-17T21:42:14.146Z,98500.00
2023-05-17T21:44:41.057Z,98493.00
2023-05-17T21:47:08.779Z,98499.00
2023-05-17T21:49:38.532Z,98479.00
2023-05-17T21:52:05.645Z,98507.00
2023-05-17T21:54:32.356Z,98505.00
2023-05-17T21:57:01.510Z,98494.00
2023-05-17T21:59:28.166Z,98501.00
2023-05-17T22:01:54.966Z,98485.00
2023-05-17T22:04:21.637Z,98493.00
2023-05-17T22:06:48.164Z,98490.00
2023-05-17T22:09:15.557Z,98496.00
2023-05-17T22:11:42.726Z,98486.00
2023-05-17T22:14:09.534Z,98481.00
2023-05-17T22:16:36.301Z,98506.00
2023-05-17T22:19:04.542Z,98477.00
2023-05-17T22:21:31.717Z,98469.00
2023-05-17T22:23:59.095Z,98510.00
2023-05-17T22:26:27.051Z,98499.00
2023-05-17T22:28:54.086Z,98509.00
2023-05-17T22:31:21.212Z,98504.00
2023-05-17T22:33:47.866Z,98509.00
2023-05-17T22:36:16.688Z,98513.00
2023-05-17T22:38:43.702Z,98492.00
2023-05-17T22:41:11.249Z,98500.00
2023-05-17T22:43:38.347Z,98496.00
2023-05-17T22:46:06.509Z,98498.00
2023-05-17T22:48:36.554Z,98497.00
2023-05-17T22:51:03.111Z,98513.00
2023-05-17T22:53:30.433Z,98496.00
2023-05-17T22:55:57.077Z,98501.00
2023-05-17T22:58:23.617Z,98478.00
2023-05-17T23:00:50.462Z,98496.00
2023-05-17T23:03:19.053Z,98494.00
2023-05-17T23:05:46.359Z,98492.00
2023-05-17T23:08:14.730Z,98502.00
2023-05-17T23:10:44.992Z,98485.00
2023-05-17T23:13:12.412Z,98508.00
2023-05-17T23:15:40.135Z,98487.00
2023-05-17T23:18:06.381Z,98502.00
2023-05-17T23:20:34.117Z,98449.00
2023-05-17T23:23:00.887Z,98489.00
2023-05-17T23:25:28.083Z,98485.00
2023-05-17T23:27:56.862Z,98469.00
2023-05-17T23:30:23.951Z,98490.00
2023-05-17T23:32:51.621Z,98486.00
2023-05-17T23:35:18.361Z,98479.00
2023-05-17T23:37:44.536Z,98491.00
2023-05-17T23:40:11.755Z,98487.00
2023-05-17T23:42:38.139Z,98493.00
2023-05-17T23:45:05.408Z,98484.00
2023-05-17T23:47:32.755Z,98500.00
2023-05-17T23:49:59.763Z,98485.00
2023-05-17T23:52:28.994Z,98492.00
2023-05-17T23:54:57.171Z,98501.00
2023-05-17T23:57:23.683Z,98499.00
2023-05-17T23:59:50.149Z,98477.00
